createdAt,value
2017-09-03T00:00:42.770Z,89.08
2017-09-03T00:03:10.328Z,88.94
2017-09-03T00:05:37.717Z,88.84
2017-09-03T00:08:05.114Z,88.99
2017-09-03T00:10:32.531Z,88.67
2017-09-03T00:12:59.931Z,88.58
2017-09-03T00:15:27.339Z,88.34
2017-09-03T00:17:54.773Z,88.17
2017-09-03T00:20:22.174Z,88.17
2017-09-03T00:22:49.578Z,88.16
2017-09-03T00:25:17.126Z,88.04
2017-09-03T00:27:44.523Z,87.97
2017-09-03T00:30:11.920Z,87.89
2017-09-03T00:32:39.335Z,87.64
2017-09-03T00:35:06.734Z,87.67
2017-09-03T00:37:34.125Z,87.73
2017-09-03T00:40:01.531Z,87.91
2017-09-03T00:42:28.923Z,88.68
2017-09-03T00:44:56.318Z,88.51
2017-09-03T00:47:23.738Z,88.79
2017-09-03T00:49:51.138Z,89.38
2017-09-03T00:52:18.534Z,89.53
2017-09-03T00:54:46.039Z,90.06
2017-09-03T00:57:13.430Z,90.36
2017-09-03T00:59:40.827Z,90.46
2017-09-03T01:02:08.375Z,90.02
2017-09-03T01:04:35.770Z,89.56
2017-09-03T01:07:03.164Z,89.78
2017-09-03T01:09:30.736Z,89.94
2017-09-03T01:11:58.122Z,89.46
2017-09-03T01:14:25.524Z,89.04
2017-09-03T01:16:53.063Z,88.62
2017-09-03T01:19:20.456Z,88.32
2017-09-03T01:21:47.845Z,88.32
2017-09-03T01:24:15.370Z,88.29
2017-09-03T01:26:42.750Z,88.83
2017-09-03T01:29:10.142Z,89.43
2017-09-03T01:31:37.589Z,89.54
2017-09-03T01:34:04.991Z,90.05
2017-09-03T01:36:32.387Z,90.25
2017-09-03T01:38:59.803Z,90.45
2017-09-03T01:41:27.195Z,90.26
2017-09-03T01:43:54.593Z,89.79
2017-09-03T01:46:22.023Z,89.25
2017-09-03T01:48:49.739Z,88.94
2017-09-03T01:51:17.134Z,88.66
2017-09-03T01:53:44.689Z,88.50
2017-09-03T01:56:12.086Z,88.56
2017-09-03T01:58:39.478Z,88.71
2017-09-03T02:01:06.884Z,88.74
2017-09-03T02:03:41.830Z,88.78
2017-09-03T02:06:09.235Z,88.94
2017-09-03T02:08:36.633Z,89.25
2017-09-03T02:11:04.027Z,89.95
2017-09-03T02:13:31.578Z,89.64
2017-09-03T02:15:58.988Z,89.66
2017-09-03T02:18:26.372Z,90.28
2017-09-03T02:20:53.923Z,90.38
2017-09-03T02:23:21.318Z,89.83
2017-09-03T02:25:48.711Z,89.81
2017-09-03T02:28:16.263Z,89.65
2017-09-03T02:30:43.658Z,89.63
2017-09-03T02:33:11.054Z,89.62
2017-09-03T02:35:38.624Z,89.59
2017-09-03T02:38:06.017Z,89.38
2017-09-03T02:40:33.410Z,89.51
2017-09-03T02:43:00.973Z,89.42
2017-09-03T02:45:28.364Z,89.42
2017-09-03T02:47:55.761Z,89.86
2017-09-03T02:50:23.178Z,89.75
2017-09-03T02:52:50.576Z,89.59
2017-09-03T02:55:17.970Z,89.37
2017-09-03T02:57:45.559Z,89.10
2017-09-03T03:00:12.975Z,88.89
2017-09-03T03:02:40.343Z,88.95
2017-09-03T03:05:07.891Z,89.38
2017-09-03T03:07:35.287Z,89.86
2017-09-03T03:10:02.687Z,89.60
2017-09-03T03:12:30.234Z,89.64
2017-09-03T03:14:57.631Z,89.51
2017-09-03T03:17:25.022Z,89.48
2017-09-03T03:19:52.442Z,89.52
2017-09-03T03:22:19.851Z,89.58
2017-09-03T03:24:47.255Z,89.65
2017-09-03T03:27:14.706Z,89.39
2017-09-03T03:29:42.108Z,89.50
2017-09-03T03:32:09.503Z,89.62
2017-09-03T03:34:37.051Z,89.58
2017-09-03T03:37:04.443Z,89.67
2017-09-03T03:39:31.844Z,89.59
2017-09-03T03:41:59.591Z,89.56
2017-09-03T03:44:26.985Z,89.51
2017-09-03T03:46:54.389Z,89.31
2017-09-03T03:49:21.902Z,89.28
2017-09-03T03:51:49.294Z,89.34
2017-09-03T03:54:16.691Z,89.76
2017-09-03T03:56:44.198Z,89.74
2017-09-03T03:59:11.596Z,89.60
2017-09-03T04:01:39.001Z,89.54
2017-09-03T04:04:06.547Z,89.50
2017-09-03T04:06:33.943Z,89.61
2017-09-03T04:09:01.343Z,89.58
2017-09-03T04:11:28.888Z,89.44
2017-09-03T04:13:56.283Z,89.36
2017-09-03T04:16:23.678Z,89.48
2017-09-03T04:18:51.459Z,89.53
2017-09-03T04:21:18.863Z,89.89
2017-09-03T04:23:46.262Z,90.40
2017-09-03T04:26:13.810Z,90.53
2017-09-03T04:28:41.209Z,90.04
2017-09-03T04:31:08.614Z,90.00
2017-09-03T04:33:36.051Z,89.85
2017-09-03T04:36:03.442Z,89.67
2017-09-03T04:38:30.838Z,89.60
2017-09-03T04:40:58.390Z,89.55
2017-09-03T04:43:25.787Z,89.45
2017-09-03T04:45:53.185Z,89.31
2017-09-03T04:48:20.595Z,89.11
2017-09-03T04:50:47.999Z,89.16
2017-09-03T04:53:15.390Z,89.34
2017-09-03T04:55:42.831Z,89.39
2017-09-03T04:58:10.242Z,89.45
2017-09-03T05:00:37.635Z,89.55
2017-09-03T05:03:05.043Z,89.64
2017-09-03T05:05:32.435Z,89.57
2017-09-03T05:07:59.830Z,89.69
2017-09-03T05:10:27.383Z,89.56
2017-09-03T05:12:54.779Z,89.63
2017-09-03T05:15:22.172Z,89.51
2017-09-03T05:17:49.727Z,89.56
2017-09-03T05:20:17.123Z,89.64
2017-09-03T05:22:44.518Z,89.64
2017-09-03T05:25:12.075Z,89.75
2017-09-03T05:27:39.481Z,89.74
2017-09-03T05:30:06.870Z,89.74
2017-09-03T05:32:34.426Z,89.76
2017-09-03T05:35:01.818Z,89.79
2017-09-03T05:37:29.206Z,89.82
2017-09-03T05:39:56.703Z,89.80
2017-09-03T05:42:24.102Z,89.83
2017-09-03T05:44:51.503Z,89.81
2017-09-03T05:47:19.050Z,89.88
2017-09-03T05:49:46.450Z,89.83
2017-09-03T05:52:13.846Z,89.71
2017-09-03T05:54:41.810Z,89.92
2017-09-03T05:57:09.790Z,89.96
2017-09-03T05:59:37.182Z,89.93
2017-09-03T06:02:04.731Z,89.95
2017-09-03T06:04:32.125Z,89.95
2017-09-03T06:06:59.522Z,89.95
2017-09-03T06:09:27.066Z,90.04
2017-09-03T06:11:54.463Z,90.04
2017-09-03T06:14:21.869Z,90.09
2017-09-03T06:16:49.302Z,90.00
2017-09-03T06:19:16.702Z,90.07
2017-09-03T06:21:44.146Z,90.14
2017-09-03T06:24:11.690Z,90.15
2017-09-03T06:26:39.100Z,90.19
2017-09-03T06:29:06.507Z,90.11
2017-09-03T06:31:34.014Z,90.16
2017-09-03T06:34:01.422Z,90.07
2017-09-03T06:36:32.011Z,89.89
2017-09-03T06:38:59.420Z,89.62
2017-09-03T06:41:26.819Z,89.15
2017-09-03T06:43:54.219Z,89.03
2017-09-03T06:46:21.639Z,89.13
2017-09-03T06:48:49.039Z,89.12
2017-09-03T06:51:16.432Z,88.65
2017-09-03T06:53:43.870Z,88.30
2017-09-03T06:56:11.271Z,88.13
2017-09-03T06:58:38.663Z,87.67
2017-09-03T07:01:06.215Z,87.56
2017-09-03T07:03:33.623Z,87.46
2017-09-03T07:06:01.011Z,86.41
2017-09-03T07:08:28.419Z,86.46
2017-09-03T07:10:55.814Z,85.98
2017-09-03T07:13:23.212Z,86.24
2017-09-03T07:15:50.627Z,85.88
2017-09-03T07:18:18.027Z,85.93
2017-09-03T07:20:45.441Z,84.57
2017-09-03T07:23:12.885Z,84.67
2017-09-03T07:25:40.287Z,84.95
2017-09-03T07:28:07.686Z,85.69
2017-09-03T07:30:35.094Z,85.21
2017-09-03T07:33:02.495Z,85.24
2017-09-03T07:35:29.890Z,85.45
2017-09-03T07:37:57.299Z,85.39
2017-09-03T07:40:24.692Z,85.02
2017-09-03T07:42:52.092Z,84.59
2017-09-03T07:45:19.531Z,84.82
2017-09-03T07:47:46.930Z,83.39
2017-09-03T07:50:14.323Z,83.11
2017-09-03T07:52:42.086Z,83.67
2017-09-03T07:55:09.483Z,84.48
2017-09-03T07:57:36.875Z,81.92
2017-09-03T08:00:04.430Z,81.28
2017-09-03T08:02:31.822Z,82.72
2017-09-03T08:04:59.219Z,83.11
2017-09-03T08:07:26.642Z,82.11
2017-09-03T08:09:54.087Z,81.68
2017-09-03T08:12:21.462Z,82.27
2017-09-03T08:14:49.019Z,83.16
2017-09-03T08:17:16.410Z,82.56
2017-09-03T08:19:43.808Z,82.72
2017-09-03T08:22:11.364Z,82.67
2017-09-03T08:24:38.751Z,82.93
2017-09-03T08:27:06.150Z,81.97
2017-09-03T08:29:33.714Z,82.00
2017-09-03T08:32:01.121Z,81.86
2017-09-03T08:34:28.531Z,82.22
2017-09-03T08:36:55.939Z,79.37
2017-09-03T08:39:23.340Z,79.30
2017-09-03T08:42:03.699Z,80.45
2017-09-03T08:44:31.094Z,80.28
2017-09-03T08:46:59.274Z,78.64
2017-09-03T08:49:26.918Z,79.04
2017-09-03T08:51:54.318Z,77.89
2017-09-03T08:54:21.789Z,76.30
2017-09-03T08:56:49.334Z,75.46
2017-09-03T08:59:16.730Z,74.76
2017-09-03T09:01:44.549Z,75.49
2017-09-03T09:04:12.115Z,77.79
2017-09-03T09:06:39.506Z,75.77
2017-09-03T09:09:06.943Z,74.25
2017-09-03T09:11:34.539Z,72.78
2017-09-03T09:14:02.001Z,72.28
2017-09-03T09:16:30.014Z,72.71
2017-09-03T09:18:57.523Z,71.80
2017-09-03T09:21:27.015Z,70.32
2017-09-03T09:23:54.411Z,71.97
2017-09-03T09:26:21.836Z,66.60
2017-09-03T09:28:49.255Z,66.87
2017-09-03T09:31:16.657Z,67.93
2017-09-03T09:33:44.215Z,65.69
2017-09-03T09:36:11.612Z,65.30
2017-09-03T09:38:39.007Z,62.96
2017-09-03T09:41:06.447Z,62.86
2017-09-03T09:43:33.846Z,64.25
2017-09-03T09:46:01.254Z,59.66
2017-09-03T09:48:28.816Z,59.97
2017-09-03T09:50:56.260Z,63.25
2017-09-03T09:53:23.655Z,59.09
2017-09-03T09:55:51.228Z,59.28
2017-09-03T09:58:18.668Z,56.86
2017-09-03T10:00:46.118Z,53.09
2017-09-03T10:03:13.563Z,54.41
2017-09-03T10:05:41.040Z,57.46
2017-09-03T10:08:08.444Z,57.82
2017-09-03T10:10:35.954Z,53.38
2017-09-03T10:13:03.359Z,53.86
2017-09-03T10:15:30.762Z,52.20
2017-09-03T10:17:58.314Z,50.97
2017-09-03T10:20:25.715Z,51.76
2017-09-03T10:22:53.115Z,53.70
2017-09-03T10:25:20.563Z,51.97
2017-09-03T10:27:47.955Z,47.33
2017-09-03T10:30:15.351Z,47.48
2017-09-03T10:32:42.861Z,47.47
2017-09-03T10:35:10.267Z,44.65
2017-09-03T10:37:37.676Z,44.53
2017-09-03T10:40:05.196Z,46.59
2017-09-03T10:42:32.595Z,42.50
2017-09-03T10:44:59.992Z,43.72
2017-09-03T10:47:27.419Z,43.47
2017-09-03T10:49:54.825Z,42.74
2017-09-03T10:52:22.236Z,44.37
2017-09-03T10:54:49.800Z,46.50
2017-09-03T10:57:17.192Z,46.85
2017-09-03T10:59:45.438Z,49.16
2017-09-03T11:02:12.942Z,50.44
2017-09-03T11:04:40.339Z,49.67
2017-09-03T11:07:07.739Z,48.03
2017-09-03T11:09:35.292Z,47.84
2017-09-03T11:12:02.686Z,45.11
2017-09-03T11:14:30.091Z,39.73
2017-09-03T11:16:57.642Z,42.85
2017-09-03T11:19:25.045Z,41.86
2017-09-03T11:21:52.455Z,43.04
2017-09-03T11:24:19.875Z,42.96
2017-09-03T11:26:47.275Z,44.02
2017-09-03T11:29:14.673Z,42.57
2017-09-03T11:31:42.079Z,41.79
2017-09-03T11:34:09.486Z,47.86
2017-09-03T11:36:36.866Z,47.71
2017-09-03T11:39:04.310Z,44.96
2017-09-03T11:41:31.710Z,38.66
2017-09-03T11:43:59.108Z,39.48
2017-09-03T11:46:26.659Z,41.03
2017-09-03T11:48:54.056Z,43.92
2017-09-03T11:51:21.502Z,41.94
2017-09-03T11:53:49.066Z,41.99
2017-09-03T11:56:16.462Z,36.84
2017-09-03T11:58:43.859Z,37.46
2017-09-03T12:01:11.271Z,41.36
2017-09-03T12:03:38.667Z,42.00
2017-09-03T12:06:06.063Z,40.42
2017-09-03T12:08:33.507Z,42.02
2017-09-03T12:11:00.915Z,43.13
2017-09-03T12:13:28.314Z,45.32
2017-09-03T12:15:55.827Z,39.37
2017-09-03T12:18:23.223Z,36.17
2017-09-03T12:20:50.634Z,40.20
2017-09-03T12:23:18.171Z,38.81
2017-09-03T12:25:46.399Z,37.71
2017-09-03T12:28:13.796Z,35.68
2017-09-03T12:30:41.235Z,37.28
2017-09-03T12:33:08.648Z,33.96
2017-09-03T12:35:42.478Z,35.76
2017-09-03T12:38:09.874Z,34.27
2017-09-03T12:40:37.267Z,37.50
2017-09-03T12:43:04.684Z,35.56
2017-09-03T12:45:32.074Z,34.52
2017-09-03T12:47:59.503Z,35.71
2017-09-03T12:50:26.895Z,37.30
2017-09-03T12:52:54.302Z,39.70
2017-09-03T12:55:21.719Z,39.15
2017-09-03T12:57:49.118Z,41.49
2017-09-03T13:00:17.203Z,37.76
2017-09-03T13:02:44.613Z,38.23
2017-09-03T13:05:12.011Z,35.97
2017-09-03T13:07:39.411Z,37.29
2017-09-03T13:10:06.815Z,39.00
2017-09-03T13:12:34.234Z,38.89
2017-09-03T13:15:01.642Z,39.76
2017-09-03T13:17:29.035Z,37.52
2017-09-03T13:19:56.438Z,37.62
2017-09-03T13:22:23.835Z,35.81
2017-09-03T13:24:51.271Z,34.03
2017-09-03T13:27:18.671Z,34.65
2017-09-03T13:29:46.058Z,38.70
2017-09-03T13:32:13.462Z,38.27
2017-09-03T13:34:40.861Z,35.91
2017-09-03T13:37:08.367Z,36.75
2017-09-03T13:39:35.780Z,38.42
2017-09-03T13:42:03.179Z,39.38
2017-09-03T13:44:30.573Z,39.33
2017-09-03T13:46:57.968Z,35.95
2017-09-03T13:49:25.414Z,35.68
2017-09-03T13:51:52.824Z,35.26
2017-09-03T13:54:20.228Z,39.05
2017-09-03T13:56:47.651Z,33.73
2017-09-03T13:59:15.020Z,34.32
2017-09-03T14:01:42.571Z,36.14
2017-09-03T14:04:09.962Z,36.11
2017-09-03T14:06:37.354Z,34.34
2017-09-03T14:09:04.759Z,34.08
2017-09-03T14:11:32.163Z,35.67
2017-09-03T14:13:59.906Z,37.83
2017-09-03T14:16:27.298Z,38.83
2017-09-03T14:18:54.698Z,39.25
2017-09-03T14:21:22.104Z,37.20
2017-09-03T14:23:49.501Z,35.99
2017-09-03T14:26:17.011Z,37.16
2017-09-03T14:28:44.410Z,37.90
2017-09-03T14:31:11.818Z,40.35
2017-09-03T14:33:39.219Z,38.74
2017-09-03T14:36:06.615Z,40.43
2017-09-03T14:38:34.038Z,37.78
2017-09-03T14:41:01.438Z,38.98
2017-09-03T14:43:28.834Z,39.62
2017-09-03T14:45:56.243Z,40.17
2017-09-03T14:48:23.682Z,41.80
2017-09-03T14:50:51.233Z,37.96
2017-09-03T14:53:18.627Z,39.82
2017-09-03T14:55:46.468Z,40.60
2017-09-03T14:58:14.207Z,40.23
2017-09-03T15:00:41.607Z,40.80
2017-09-03T15:03:09.047Z,38.79
2017-09-03T15:05:36.444Z,44.55
2017-09-03T15:08:03.848Z,45.04
2017-09-03T15:10:31.238Z,44.28
2017-09-03T15:12:58.637Z,41.25
2017-09-03T15:15:26.163Z,40.81
2017-09-03T15:17:53.555Z,38.32
2017-09-03T15:20:20.955Z,37.77
2017-09-03T15:22:48.351Z,40.36
2017-09-03T15:25:15.742Z,39.00
2017-09-03T15:27:43.150Z,38.81
2017-09-03T15:30:10.551Z,43.48
2017-09-03T15:32:38.071Z,43.69
2017-09-03T15:35:05.471Z,43.34
2017-09-03T15:37:39.182Z,38.45
2017-09-03T15:40:06.585Z,41.21
2017-09-03T15:42:33.977Z,42.23
2017-09-03T15:45:01.375Z,43.85
2017-09-03T15:47:28.774Z,41.79
2017-09-03T15:49:56.326Z,42.55
2017-09-03T15:52:23.719Z,41.48
2017-09-03T15:54:51.117Z,40.74
2017-09-03T15:57:18.527Z,40.02
2017-09-03T15:59:45.927Z,43.47
2017-09-03T16:02:13.342Z,41.72
2017-09-03T16:04:40.747Z,41.96
2017-09-03T16:07:08.172Z,41.69
2017-09-03T16:09:35.582Z,39.75
2017-09-03T16:12:03.034Z,43.46
2017-09-03T16:14:30.586Z,48.86
2017-09-03T16:16:57.982Z,52.07
2017-09-03T16:19:25.379Z,53.74
2017-09-03T16:21:52.785Z,53.25
2017-09-03T16:24:20.184Z,54.47
2017-09-03T16:26:47.726Z,54.88
2017-09-03T16:29:15.118Z,56.33
2017-09-03T16:31:42.519Z,56.54
2017-09-03T16:34:09.926Z,56.62
2017-09-03T16:36:37.336Z,56.17
2017-09-03T16:39:04.971Z,56.69
2017-09-03T16:41:32.363Z,57.12
2017-09-03T16:43:59.760Z,57.33
2017-09-03T16:46:27.171Z,56.99
2017-09-03T16:48:54.579Z,58.28
2017-09-03T16:51:21.991Z,58.62
2017-09-03T16:53:49.391Z,59.18
2017-09-03T16:56:16.786Z,59.59
2017-09-03T16:58:44.183Z,59.69
2017-09-03T17:01:11.579Z,59.48
2017-09-03T17:03:39.107Z,59.24
2017-09-03T17:06:06.506Z,57.94
2017-09-03T17:08:34.871Z,58.84
2017-09-03T17:11:02.338Z,59.37
2017-09-03T17:13:29.736Z,59.29
2017-09-03T17:15:57.292Z,60.90
2017-09-03T17:18:24.683Z,60.00
2017-09-03T17:20:54.090Z,52.17
2017-09-03T17:23:21.518Z,53.90
2017-09-03T17:25:48.916Z,55.48
2017-09-03T17:28:16.462Z,55.01
2017-09-03T17:30:46.200Z,58.33
2017-09-03T17:33:13.657Z,59.26
2017-09-03T17:35:41.987Z,56.53
2017-09-03T17:38:17.791Z,56.92
2017-09-03T17:40:48.752Z,58.89
2017-09-03T17:43:16.491Z,59.74
2017-09-03T17:45:46.244Z,60.47
2017-09-03T17:48:13.639Z,60.36
2017-09-03T17:50:41.168Z,60.37
2017-09-03T17:53:08.558Z,60.50
2017-09-03T17:55:35.960Z,60.42
2017-09-03T17:58:03.371Z,60.44
2017-09-03T18:00:30.771Z,60.46
2017-09-03T18:02:58.284Z,61.12
2017-09-03T18:05:25.678Z,61.69
2017-09-03T18:07:53.073Z,61.78
2017-09-03T18:10:20.481Z,61.78
2017-09-03T18:12:47.884Z,61.35
2017-09-03T18:15:15.399Z,60.62
2017-09-03T18:17:42.791Z,61.60
2017-09-03T18:20:10.194Z,62.89
2017-09-03T18:22:37.622Z,62.83
2017-09-03T18:25:05.027Z,62.39
2017-09-03T18:27:32.582Z,62.29
2017-09-03T18:30:00.170Z,62.53
2017-09-03T18:32:27.631Z,62.42
2017-09-03T18:34:55.045Z,62.55
2017-09-03T18:37:23.352Z,62.97
2017-09-03T18:40:02.464Z,63.12
2017-09-03T18:42:30.640Z,63.21
2017-09-03T18:44:58.056Z,61.53
2017-09-03T18:47:25.451Z,61.77
2017-09-03T18:49:52.860Z,62.81
2017-09-03T18:52:25.791Z,63.51
2017-09-03T18:54:53.196Z,63.83
2017-09-03T18:57:22.426Z,63.39
2017-09-03T19:03:02.381Z,64.13
2017-09-03T19:05:31.291Z,64.93
2017-09-03T19:07:58.697Z,65.81
2017-09-03T19:10:26.100Z,66.01
2017-09-03T19:12:53.491Z,65.48
2017-09-03T19:15:20.910Z,64.14
2017-09-03T19:17:48.302Z,63.73
2017-09-03T19:20:15.702Z,65.07
2017-09-03T19:22:43.115Z,64.92
2017-09-03T19:25:10.522Z,64.94
2017-09-03T19:27:38.079Z,66.17
2017-09-03T19:30:05.478Z,66.57
2017-09-03T19:32:32.875Z,66.88
2017-09-03T19:35:00.308Z,67.04
2017-09-03T19:37:29.043Z,67.45
2017-09-03T19:39:56.555Z,67.63
2017-09-03T19:42:23.950Z,66.87
2017-09-03T19:44:51.346Z,67.05
2017-09-03T19:47:18.755Z,67.58
2017-09-03T19:49:46.151Z,68.40
2017-09-03T19:52:13.654Z,68.42
2017-09-03T19:54:41.055Z,67.64
2017-09-03T19:57:08.446Z,67.36
2017-09-03T19:59:35.846Z,67.86
2017-09-03T20:02:03.242Z,67.81
2017-09-03T20:04:30.758Z,67.27
2017-09-03T20:06:58.152Z,67.41
2017-09-03T20:09:25.552Z,67.38
2017-09-03T20:11:52.954Z,67.40
2017-09-03T20:14:20.361Z,67.44
2017-09-03T20:16:47.887Z,67.71
2017-09-03T20:19:15.287Z,67.63
2017-09-03T20:21:42.685Z,67.86
2017-09-03T20:24:10.089Z,67.61
2017-09-03T20:26:37.486Z,67.65
2017-09-03T20:29:04.955Z,67.34
2017-09-03T20:31:32.339Z,67.50
2017-09-03T20:33:59.734Z,66.68
2017-09-03T20:36:27.159Z,66.66
2017-09-03T20:38:54.554Z,67.56
2017-09-03T20:41:22.115Z,67.94
2017-09-03T20:43:49.523Z,67.60
2017-09-03T20:46:16.928Z,67.23
2017-09-03T20:48:44.318Z,66.72
2017-09-03T20:51:11.747Z,67.79
2017-09-03T20:53:39.349Z,68.29
2017-09-03T20:56:06.750Z,68.72
2017-09-03T20:58:34.183Z,67.29
2017-09-03T21:01:01.601Z,67.61
2017-09-03T21:03:29.008Z,68.43
2017-09-03T21:05:57.339Z,69.08
2017-09-03T21:08:24.808Z,68.41
2017-09-03T21:10:52.209Z,68.35
2017-09-03T21:13:19.603Z,68.41
2017-09-03T21:15:47.851Z,68.75
2017-09-03T21:18:15.707Z,68.60
2017-09-03T21:20:43.108Z,68.98
2017-09-03T21:23:10.508Z,69.07
2017-09-03T21:25:37.911Z,69.78
2017-09-03T21:28:05.434Z,69.79
2017-09-03T21:30:32.834Z,69.98
2017-09-03T21:33:00.238Z,70.70
2017-09-03T21:35:27.639Z,70.87
2017-09-03T21:37:55.195Z,70.40
2017-09-03T21:40:22.594Z,70.70
2017-09-03T21:42:50.347Z,70.76
2017-09-03T21:45:17.744Z,70.89
2017-09-03T21:47:45.147Z,71.11
2017-09-03T21:50:12.551Z,71.05
2017-09-03T21:52:39.951Z,70.66
2017-09-03T21:55:07.479Z,71.43
2017-09-03T21:57:34.878Z,71.63
2017-09-03T22:00:02.279Z,71.33
2017-09-03T22:02:30.018Z,71.78
2017-09-03T22:04:57.415Z,72.02
2017-09-03T22:07:24.819Z,72.55
2017-09-03T22:09:52.223Z,72.58
2017-09-03T22:12:19.624Z,73.12
2017-09-03T22:14:47.018Z,73.10
2017-09-03T22:17:14.434Z,73.55
2017-09-03T22:19:41.830Z,73.49
2017-09-03T22:22:09.239Z,73.65
2017-09-03T22:24:36.647Z,74.06
2017-09-03T22:27:04.041Z,73.96
2017-09-03T22:29:31.486Z,73.96
2017-09-03T22:31:58.895Z,74.25
2017-09-03T22:34:26.294Z,74.62
2017-09-03T22:36:53.803Z,74.71
2017-09-03T22:39:21.189Z,74.58
2017-09-03T22:41:48.588Z,74.97
2017-09-03T22:44:15.994Z,74.95
2017-09-03T22:46:43.390Z,74.96
2017-09-03T22:49:10.898Z,74.42
2017-09-03T22:51:38.304Z,74.37
2017-09-03T22:54:05.690Z,74.59
2017-09-03T22:56:33.107Z,75.00
2017-09-03T22:59:00.511Z,75.06
2017-09-03T23:01:28.068Z,75.26
2017-09-03T23:03:55.468Z,75.28
2017-09-03T23:06:22.862Z,75.46
2017-09-03T23:08:50.282Z,75.50
2017-09-03T23:11:17.678Z,75.68
2017-09-03T23:13:45.190Z,75.72
2017-09-03T23:16:12.587Z,75.52
2017-09-03T23:18:40.010Z,75.36
2017-09-03T23:21:07.410Z,75.46
2017-09-03T23:23:34.806Z,76.07
2017-09-03T23:26:02.244Z,76.14
2017-09-03T23:28:29.641Z,76.33
2017-09-03T23:30:57.045Z,76.43
2017-09-03T23:33:24.452Z,76.51
2017-09-03T23:35:51.855Z,76.66
2017-09-03T23:38:19.374Z,76.82
2017-09-03T23:40:46.803Z,76.87
2017-09-03T23:43:14.211Z,76.74
2017-09-03T23:45:41.618Z,76.85
2017-09-03T23:48:09.015Z,76.79
2017-09-03T23:50:36.698Z,76.90
2017-09-03T23:53:04.094Z,76.45
2017-09-03T23:55:31.494Z,76.25
2017-09-03T23:57:58.907Z,76.80
